Tarialan, Mongolia
Current Conditions -  °F | °C
As of 10:00 AM on Sunday 26 Oct 2014 (Local Time) from UIII Reporting Station
Clear Clear  
Wind Chill: 30°   Ceiling: Unl
Heat Index: 37°   Visibility: 6mi
Dew Point: 19°   Wind: 11mph
Humidity: 48%   Direction: 130°SE
Pressure: 30.09"   Gusts: NA
Location:  49.57°N, 102°E
Report Text: UIII 260200Z 13005MPS CAVOK 03/M07 Q1019 NOSIG RMK QFE722/096312920260
Loading
Personal Weather Stations






























Interactive Weather Map
Tropical Storm Tracking
New forecast layout! Learn more

10-Day Weather Forecast

Advertisements
Track Severe Weather on mobile